sensor_id;sensor_type;location;lat;lon;timestamp;pressure;altitude;pressure_sealevel;temperature;humidity
75692;BME280;64307;52.508;6.090;2022-12-16T00:01:20;101044.22;;;-0.28;91.19
75692;BME280;64307;52.508;6.090;2022-12-16T00:03:53;101040.06;;;-0.25;91.78
75692;BME280;64307;52.508;6.090;2022-12-16T00:06:21;101038.59;;;-0.31;91.57
75692;BME280;64307;52.508;6.090;2022-12-16T00:08:47;101047.78;;;-0.27;91.46
75692;BME280;64307;52.508;6.090;2022-12-16T00:11:12;101047.09;;;-0.33;91.81
75692;BME280;64307;52.508;6.090;2022-12-16T00:13:38;101054.88;;;-0.18;91.30
75692;BME280;64307;52.508;6.090;2022-12-16T00:16:12;101052.28;;;-0.14;91.29
75692;BME280;64307;52.508;6.090;2022-12-16T00:18:39;101053.28;;;-0.19;91.30
75692;BME280;64307;52.508;6.090;2022-12-16T00:21:04;101061.00;;;-0.04;91.67
75692;BME280;64307;52.508;6.090;2022-12-16T00:23:30;101048.28;;;-0.08;90.76
75692;BME280;64307;52.508;6.090;2022-12-16T00:25:56;101056.19;;;0.02;90.92
75692;BME280;64307;52.508;6.090;2022-12-16T00:28:21;101050.88;;;0.14;90.37
75692;BME280;64307;52.508;6.090;2022-12-16T00:30:48;101045.06;;;0.16;90.43
75692;BME280;64307;52.508;6.090;2022-12-16T00:33:14;101056.81;;;0.33;90.28
75692;BME280;64307;52.508;6.090;2022-12-16T00:35:40;101041.03;;;0.30;89.41
75692;BME280;64307;52.508;6.090;2022-12-16T00:38:05;101049.25;;;0.30;90.11
75692;BME280;64307;52.508;6.090;2022-12-16T00:40:30;101063.09;;;0.42;89.58
75692;BME280;64307;52.508;6.090;2022-12-16T00:42:56;101058.09;;;0.36;89.09
75692;BME280;64307;52.508;6.090;2022-12-16T00:45:21;101066.81;;;0.29;89.00
75692;BME280;64307;52.508;6.090;2022-12-16T00:47:48;101069.06;;;0.36;89.64
75692;BME280;64307;52.508;6.090;2022-12-16T00:50:14;101060.22;;;0.39;89.54
75692;BME280;64307;52.508;6.090;2022-12-16T00:52:40;101081.97;;;0.27;90.24
75692;BME280;64307;52.508;6.090;2022-12-16T00:55:05;101074.22;;;0.37;90.39
75692;BME280;64307;52.508;6.090;2022-12-16T00:57:32;101080.81;;;0.45;90.02
75692;BME280;64307;52.508;6.090;2022-12-16T00:59:58;101072.63;;;0.45;90.07
75692;BME280;64307;52.508;6.090;2022-12-16T01:02:23;101075.84;;;0.55;89.23
75692;BME280;64307;52.508;6.090;2022-12-16T01:04:48;101082.94;;;0.31;89.84
75692;BME280;64307;52.508;6.090;2022-12-16T01:07:13;101085.50;;;0.27;90.63
75692;BME280;64307;52.508;6.090;2022-12-16T01:09:39;101091.31;;;0.26;90.37
75692;BME280;64307;52.508;6.090;2022-12-16T01:12:04;101100.47;;;0.21;91.45
75692;BME280;64307;52.508;6.090;2022-12-16T01:14:30;101098.84;;;0.37;90.60
75692;BME280;64307;52.508;6.090;2022-12-16T01:16:57;101100.63;;;0.25;90.85
75692;BME280;64307;52.508;6.090;2022-12-16T01:19:22;101108.38;;;0.31;90.75
75692;BME280;64307;52.508;6.090;2022-12-16T01:21:47;101096.28;;;0.15;91.33
75692;BME280;64307;52.508;6.090;2022-12-16T01:24:13;101102.88;;;0.31;91.46
75692;BME280;64307;52.508;6.090;2022-12-16T01:26:38;101108.03;;;0.41;90.99
75692;BME280;64307;52.508;6.090;2022-12-16T01:29:04;101111.94;;;0.49;90.47
75692;BME280;64307;52.508;6.090;2022-12-16T01:31:30;101113.72;;;0.53;90.60
75692;BME280;64307;52.508;6.090;2022-12-16T01:33:55;101111.25;;;0.60;89.94
75692;BME280;64307;52.508;6.090;2022-12-16T01:36:20;101119.47;;;0.60;90.36
75692;BME280;64307;52.508;6.090;2022-12-16T01:38:46;101126.75;;;0.56;90.48
75692;BME280;64307;52.508;6.090;2022-12-16T01:41:12;101132.69;;;0.50;90.83
75692;BME280;64307;52.508;6.090;2022-12-16T01:43:39;101139.00;;;0.50;91.00
75692;BME280;64307;52.508;6.090;2022-12-16T01:46:23;101135.28;;;0.38;91.77
75692;BME280;64307;52.508;6.090;2022-12-16T01:49:01;101141.09;;;0.45;91.74
75692;BME280;64307;52.508;6.090;2022-12-16T01:51:38;101132.88;;;0.45;91.66
75692;BME280;64307;52.508;6.090;2022-12-16T01:54:17;101134.81;;;0.53;91.23
75692;BME280;64307;52.508;6.090;2022-12-16T01:56:53;101134.97;;;0.56;91.30
75692;BME280;64307;52.508;6.090;2022-12-16T01:59:21;101131.09;;;0.57;91.95
75692;BME280;64307;52.508;6.090;2022-12-16T02:01:47;101134.97;;;0.56;91.62
75692;BME280;64307;52.508;6.090;2022-12-16T02:04:13;101146.09;;;0.43;92.03
75692;BME280;64307;52.508;6.090;2022-12-16T02:06:38;101142.84;;;0.49;92.36
75692;BME280;64307;52.508;6.090;2022-12-16T02:09:08;101136.72;;;0.44;92.08
75692;BME280;64307;52.508;6.090;2022-12-16T02:14:59;101157.22;;;0.55;91.82
75692;BME280;64307;52.508;6.090;2022-12-16T02:17:47;101143.34;;;0.60;91.93
75692;BME280;64307;52.508;6.090;2022-12-16T02:20:48;101151.69;;;0.80;90.98
75692;BME280;64307;52.508;6.090;2022-12-16T02:23:26;101158.63;;;0.87;91.12
75692;BME280;64307;52.508;6.090;2022-12-16T02:34:16;101161.69;;;0.94;90.34
75692;BME280;64307;52.508;6.090;2022-12-16T02:37:04;101167.84;;;0.73;89.73
75692;BME280;64307;52.508;6.090;2022-12-16T02:39:36;101172.69;;;0.51;91.41
75692;BME280;64307;52.508;6.090;2022-12-16T02:45:02;101177.50;;;0.54;90.42
75692;BME280;64307;52.508;6.090;2022-12-16T02:47:29;101175.41;;;0.34;90.56
75692;BME280;64307;52.508;6.090;2022-12-16T02:49:55;101179.44;;;0.45;90.44
75692;BME280;64307;52.508;6.090;2022-12-16T02:52:26;101181.84;;;0.38;90.56
75692;BME280;64307;52.508;6.090;2022-12-16T02:54:57;101184.25;;;0.39;90.52
75692;BME280;64307;52.508;6.090;2022-12-16T02:57:33;101185.88;;;0.40;90.08
75692;BME280;64307;52.508;6.090;2022-12-16T03:00:08;101181.84;;;0.46;89.89
75692;BME280;64307;52.508;6.090;2022-12-16T03:07:43;101198.44;;;0.50;90.37
75692;BME280;64307;52.508;6.090;2022-12-16T03:10:13;101197.66;;;0.58;89.97
75692;BME280;64307;52.508;6.090;2022-12-16T03:12:41;101201.06;;;0.63;89.84
75692;BME280;64307;52.508;6.090;2022-12-16T03:15:09;101210.88;;;0.64;89.92
75692;BME280;64307;52.508;6.090;2022-12-16T03:17:36;101192.16;;;0.58;89.62
75692;BME280;64307;52.508;6.090;2022-12-16T03:20:31;101200.41;;;0.66;89.74
75692;BME280;64307;52.508;6.090;2022-12-16T03:22:58;101193.78;;;0.50;90.08
75692;BME280;64307;52.508;6.090;2022-12-16T03:25:27;101215.69;;;0.42;90.99
75692;BME280;64307;52.508;6.090;2022-12-16T03:27:59;101222.59;;;0.39;91.67
75692;BME280;64307;52.508;6.090;2022-12-16T03:30:33;101223.44;;;0.48;91.01
75692;BME280;64307;52.508;6.090;2022-12-16T03:33:04;101219.75;;;0.53;90.87
75692;BME280;64307;52.508;6.090;2022-12-16T03:35:43;101235.53;;;0.64;90.64
75692;BME280;64307;52.508;6.090;2022-12-16T03:38:11;101224.44;;;0.69;90.50
75692;BME280;64307;52.508;6.090;2022-12-16T03:40:39;101229.91;;;0.69;90.01
75692;BME280;64307;52.508;6.090;2022-12-16T03:43:06;101226.22;;;0.65;90.58
75692;BME280;64307;52.508;6.090;2022-12-16T03:45:37;101239.25;;;0.68;90.37
75692;BME280;64307;52.508;6.090;2022-12-16T03:48:06;101232.97;;;0.68;90.64
75692;BME280;64307;52.508;6.090;2022-12-16T03:50:33;101239.91;;;0.65;91.12
75692;BME280;64307;52.508;6.090;2022-12-16T03:53:00;101230.84;;;0.56;90.58
75692;BME280;64307;52.508;6.090;2022-12-16T03:55:25;101243.28;;;0.62;91.06
75692;BME280;64307;52.508;6.090;2022-12-16T03:57:51;101242.81;;;0.69;90.79
75692;BME280;64307;52.508;6.090;2022-12-16T04:00:16;101246.84;;;0.71;90.95
75692;BME280;64307;52.508;6.090;2022-12-16T04:02:42;101242.97;;;0.72;90.81
75692;BME280;64307;52.508;6.090;2022-12-16T04:05:07;101255.38;;;0.78;90.55
75692;BME280;64307;52.508;6.090;2022-12-16T04:07:33;101242.63;;;0.74;90.99
75692;BME280;64307;52.508;6.090;2022-12-16T04:09:58;101240.22;;;0.72;91.06
75692;BME280;64307;52.508;6.090;2022-12-16T04:12:23;101251.53;;;0.79;90.79
75692;BME280;64307;52.508;6.090;2022-12-16T04:15:08;101250.06;;;0.73;91.02
75692;BME280;64307;52.508;6.090;2022-12-16T04:17:52;101251.84;;;0.69;90.02
75692;BME280;64307;52.508;6.090;2022-12-16T04:20:38;101262.31;;;0.76;90.89
75692;BME280;64307;52.508;6.090;2022-12-16T04:23:25;101261.19;;;0.77;90.47
75692;BME280;64307;52.508;6.090;2022-12-16T04:26:10;101256.19;;;0.70;90.78
75692;BME280;64307;52.508;6.090;2022-12-16T04:28:36;101257.63;;;0.68;90.81
75692;BME280;64307;52.508;6.090;2022-12-16T04:31:01;101249.25;;;0.64;91.01
75692;BME280;64307;52.508;6.090;2022-12-16T04:33:26;101255.22;;;0.66;91.25
75692;BME280;64307;52.508;6.090;2022-12-16T04:36:11;101265.53;;;0.69;91.30
75692;BME280;64307;52.508;6.090;2022-12-16T04:38:55;101266.81;;;0.63;91.21
75692;BME280;64307;52.508;6.090;2022-12-16T04:41:38;101269.25;;;0.65;91.62
75692;BME280;64307;52.508;6.090;2022-12-16T04:44:22;101278.44;;;0.69;91.69
75692;BME280;64307;52.508;6.090;2022-12-16T04:47:07;101279.38;;;0.64;91.44
75692;BME280;64307;52.508;6.090;2022-12-16T04:49:50;101266.81;;;0.63;91.58
75692;BME280;64307;52.508;6.090;2022-12-16T04:52:34;101265.53;;;0.69;91.63
75692;BME280;64307;52.508;6.090;2022-12-16T04:55:18;101258.44;;;0.68;91.89
75692;BME280;64307;52.508;6.090;2022-12-16T04:58:02;101264.56;;;0.65;91.49
75692;BME280;64307;52.508;6.090;2022-12-16T05:00:48;101276.81;;;0.68;92.20
75692;BME280;64307;52.508;6.090;2022-12-16T05:03:32;101269.25;;;0.73;91.75
75692;BME280;64307;52.508;6.090;2022-12-16T05:06:17;101278.25;;;0.74;91.66
75692;BME280;64307;52.508;6.090;2022-12-16T05:09:02;101277.47;;;0.73;91.40
75692;BME280;64307;52.508;6.090;2022-12-16T05:11:46;101271.31;;;0.68;91.70
75692;BME280;64307;52.508;6.090;2022-12-16T05:14:30;101267.13;;;0.62;91.78
75692;BME280;64307;52.508;6.090;2022-12-16T05:17:14;101267.44;;;0.60;91.71
75692;BME280;64307;52.508;6.090;2022-12-16T05:19:58;101277.59;;;0.60;91.78
75692;BME280;64307;52.508;6.090;2022-12-16T05:22:42;101275.13;;;0.41;92.25
75692;BME280;64307;52.508;6.090;2022-12-16T05:25:27;101277.56;;;0.34;92.54
75692;BME280;64307;52.508;6.090;2022-12-16T05:28:11;101279.31;;;0.30;92.91
75692;BME280;64307;52.508;6.090;2022-12-16T05:30:55;101283.69;;;0.40;92.46
75692;BME280;64307;52.508;6.090;2022-12-16T05:33:39;101280.28;;;0.34;92.34
75692;BME280;64307;52.508;6.090;2022-12-16T05:36:23;101291.94;;;0.48;91.80
75692;BME280;64307;52.508;6.090;2022-12-16T05:39:07;101293.75;;;0.61;91.46
75692;BME280;64307;52.508;6.090;2022-12-16T05:41:51;101296.47;;;0.61;90.84
75692;BME280;64307;52.508;6.090;2022-12-16T05:44:35;101286.31;;;0.53;91.20
75692;BME280;64307;52.508;6.090;2022-12-16T05:47:19;101301.94;;;0.70;90.96
75692;BME280;64307;52.508;6.090;2022-12-16T05:50:04;101296.00;;;0.68;90.51
75692;BME280;64307;52.508;6.090;2022-12-16T05:52:50;101293.72;;;0.70;90.07
75692;BME280;64307;52.508;6.090;2022-12-16T05:55:34;101293.56;;;0.66;90.09
75692;BME280;64307;52.508;6.090;2022-12-16T05:58:19;101289.84;;;0.54;90.15
75692;BME280;64307;52.508;6.090;2022-12-16T06:01:03;101289.97;;;0.40;90.79
75692;BME280;64307;52.508;6.090;2022-12-16T06:03:47;101293.34;;;0.37;90.32
75692;BME280;64307;52.508;6.090;2022-12-16T06:06:31;101301.56;;;0.37;90.83
75692;BME280;64307;52.508;6.090;2022-12-16T06:09:15;101297.66;;;0.30;90.56
75692;BME280;64307;52.508;6.090;2022-12-16T06:11:59;101309.94;;;0.32;90.84
75692;BME280;64307;52.508;6.090;2022-12-16T06:14:43;101307.34;;;0.36;91.13
75692;BME280;64307;52.508;6.090;2022-12-16T06:17:27;101314.97;;;0.47;89.78
75692;BME280;64307;52.508;6.090;2022-12-16T06:20:11;101311.25;;;0.52;88.76
75692;BME280;64307;52.508;6.090;2022-12-16T06:22:55;101308.03;;;0.50;88.56
75692;BME280;64307;52.508;6.090;2022-12-16T06:25:39;101305.59;;;0.40;89.01
75692;BME280;64307;52.508;6.090;2022-12-16T06:28:23;101303.97;;;0.30;88.97
75692;BME280;64307;52.508;6.090;2022-12-16T06:31:08;101314.06;;;0.21;89.16
75692;BME280;64307;52.508;6.090;2022-12-16T06:33:52;101321.47;;;0.21;88.96
75692;BME280;64307;52.508;6.090;2022-12-16T06:36:37;101328.25;;;0.23;88.67
75692;BME280;64307;52.508;6.090;2022-12-16T06:39:21;101332.16;;;0.31;87.84
75692;BME280;64307;52.508;6.090;2022-12-16T06:42:05;101333.44;;;0.33;87.79
75692;BME280;64307;52.508;6.090;2022-12-16T06:44:49;101334.13;;;0.39;87.55
75692;BME280;64307;52.508;6.090;2022-12-16T06:47:33;101341.69;;;0.42;87.65
75692;BME280;64307;52.508;6.090;2022-12-16T06:50:17;101332.53;;;0.46;87.13
75692;BME280;64307;52.508;6.090;2022-12-16T06:53:01;101335.72;;;0.40;87.51
75692;BME280;64307;52.508;6.090;2022-12-16T06:55:44;101344.44;;;0.42;87.31
75692;BME280;64307;52.508;6.090;2022-12-16T06:58:28;101343.13;;;0.39;87.30
75692;BME280;64307;52.508;6.090;2022-12-16T07:01:12;101340.38;;;0.39;87.66
75692;BME280;64307;52.508;6.090;2022-12-16T07:03:57;101343.91;;;0.31;87.76
75692;BME280;64307;52.508;6.090;2022-12-16T07:06:41;101353.75;;;0.32;88.38
75692;BME280;64307;52.508;6.090;2022-12-16T07:09:25;101367.28;;;0.29;88.08
75692;BME280;64307;52.508;6.090;2022-12-16T07:12:09;101360.78;;;0.25;88.40
75692;BME280;64307;52.508;6.090;2022-12-16T07:14:53;101363.19;;;0.18;88.26
75692;BME280;64307;52.508;6.090;2022-12-16T07:17:38;101377.41;;;0.28;88.31
75692;BME280;64307;52.508;6.090;2022-12-16T07:20:23;101390.47;;;0.31;88.04
75692;BME280;64307;52.508;6.090;2022-12-16T07:23:07;101382.91;;;0.28;88.30
75692;BME280;64307;52.508;6.090;2022-12-16T07:25:51;101382.69;;;0.25;88.36
75692;BME280;64307;52.508;6.090;2022-12-16T07:28:35;101378.25;;;0.29;88.02
75692;BME280;64307;52.508;6.090;2022-12-16T07:31:19;101384.22;;;0.31;87.65
75692;BME280;64307;52.508;6.090;2022-12-16T07:34:02;101398.41;;;0.33;87.49
75692;BME280;64307;52.508;6.090;2022-12-16T07:36:46;101409.03;;;0.34;87.67
75692;BME280;64307;52.508;6.090;2022-12-16T07:39:30;101407.09;;;0.35;87.85
75692;BME280;64307;52.508;6.090;2022-12-16T07:42:14;101394.50;;;0.34;87.74
75692;BME280;64307;52.508;6.090;2022-12-16T07:44:59;101407.63;;;0.45;87.74
75692;BME280;64307;52.508;6.090;2022-12-16T07:47:50;101408.25;;;0.42;87.98
75692;BME280;64307;52.508;6.090;2022-12-16T07:50:35;101415.03;;;0.45;87.83
75692;BME280;64307;52.508;6.090;2022-12-16T07:53:19;101414.56;;;0.51;87.54
75692;BME280;64307;52.508;6.090;2022-12-16T07:56:03;101418.31;;;0.55;88.00
75692;BME280;64307;52.508;6.090;2022-12-16T07:58:47;101428.69;;;0.67;87.95
75692;BME280;64307;52.508;6.090;2022-12-16T08:01:36;101432.72;;;0.69;88.21
75692;BME280;64307;52.508;6.090;2022-12-16T08:04:19;101448.06;;;0.79;88.33
75692;BME280;64307;52.508;6.090;2022-12-16T08:07:03;101439.72;;;0.93;88.02
75692;BME280;64307;52.508;6.090;2022-12-16T08:09:47;101447.31;;;0.96;87.97
75692;BME280;64307;52.508;6.090;2022-12-16T08:12:31;101451.34;;;0.90;87.88
75692;BME280;64307;52.508;6.090;2022-12-16T08:15:15;101458.13;;;0.92;88.23
75692;BME280;64307;52.508;6.090;2022-12-16T08:17:59;101470.53;;;0.90;88.05
75692;BME280;64307;52.508;6.090;2022-12-16T08:20:43;101475.22;;;0.98;88.19
75692;BME280;64307;52.508;6.090;2022-12-16T08:23:27;101488.16;;;1.06;87.73
75692;BME280;64307;52.508;6.090;2022-12-16T08:26:11;101480.28;;;1.13;88.29
75692;BME280;64307;52.508;6.090;2022-12-16T08:28:55;101482.38;;;1.16;87.90
75692;BME280;64307;52.508;6.090;2022-12-16T08:31:39;101494.50;;;1.23;87.64
75692;BME280;64307;52.508;6.090;2022-12-16T08:34:23;101482.38;;;1.16;87.75
75692;BME280;64307;52.508;6.090;2022-12-16T08:37:07;101490.78;;;1.19;88.07
75692;BME280;64307;52.508;6.090;2022-12-16T08:39:51;101497.56;;;1.22;88.47
75692;BME280;64307;52.508;6.090;2022-12-16T08:42:35;101497.28;;;1.32;88.29
75692;BME280;64307;52.508;6.090;2022-12-16T08:45:19;101505.50;;;1.32;88.49
75692;BME280;64307;52.508;6.090;2022-12-16T08:48:03;101506.97;;;1.38;88.58
75692;BME280;64307;52.508;6.090;2022-12-16T08:50:47;101518.63;;;1.43;88.45
75692;BME280;64307;52.508;6.090;2022-12-16T08:53:32;101525.19;;;1.34;89.32
75692;BME280;64307;52.508;6.090;2022-12-16T08:56:16;101514.72;;;1.36;88.88
75692;BME280;64307;52.508;6.090;2022-12-16T08:59:00;101515.69;;;1.40;88.79
75692;BME280;64307;52.508;6.090;2022-12-16T09:01:43;101516.19;;;1.42;89.53
75692;BME280;64307;52.508;6.090;2022-12-16T09:04:27;101530.56;;;1.47;88.75
75692;BME280;64307;52.508;6.090;2022-12-16T09:07:11;101534.28;;;1.43;89.29
75692;BME280;64307;52.508;6.090;2022-12-16T09:09:55;101543.16;;;1.48;89.63
75692;BME280;64307;52.508;6.090;2022-12-16T09:12:39;101542.34;;;1.48;90.03
75692;BME280;64307;52.508;6.090;2022-12-16T09:15:23;101533.81;;;1.49;89.99
75692;BME280;64307;52.508;6.090;2022-12-16T09:18:07;101538.50;;;1.57;89.08
75692;BME280;64307;52.508;6.090;2022-12-16T09:20:51;101527.63;;;1.44;89.78
75692;BME280;64307;52.508;6.090;2022-12-16T09:23:36;101551.75;;;1.55;89.98
75692;BME280;64307;52.508;6.090;2022-12-16T09:26:20;101550.56;;;1.48;90.37
75692;BME280;64307;52.508;6.090;2022-12-16T09:29:04;101554.16;;;1.57;89.90
75692;BME280;64307;52.508;6.090;2022-12-16T09:31:49;101555.28;;;1.64;89.76
75692;BME280;64307;52.508;6.090;2022-12-16T09:34:33;101566.75;;;1.49;89.95
75692;BME280;64307;52.508;6.090;2022-12-16T09:37:17;101568.66;;;1.49;90.47
75692;BME280;64307;52.508;6.090;2022-12-16T09:40:01;101571.56;;;1.52;90.58
75692;BME280;64307;52.508;6.090;2022-12-16T09:42:53;101584.97;;;1.54;90.54
75692;BME280;64307;52.508;6.090;2022-12-16T09:45:45;101586.16;;;1.61;90.38
75692;BME280;64307;52.508;6.090;2022-12-16T09:51:39;101578.72;;;1.62;90.30
75692;BME280;64307;52.508;6.090;2022-12-16T09:54:27;101576.28;;;1.60;90.76
75692;BME280;64307;52.508;6.090;2022-12-16T09:57:12;101595.97;;;1.62;90.42
75692;BME280;64307;52.508;6.090;2022-12-16T10:00:00;101598.09;;;1.65;90.08
75692;BME280;64307;52.508;6.090;2022-12-16T10:02:47;101604.91;;;1.68;90.89
75692;BME280;64307;52.508;6.090;2022-12-16T10:05:49;101602.13;;;1.59;90.71
75692;BME280;64307;52.508;6.090;2022-12-16T10:08:44;101603.28;;;1.67;90.49
75692;BME280;64307;52.508;6.090;2022-12-16T10:11:51;101618.44;;;1.64;91.51
75692;BME280;64307;52.508;6.090;2022-12-16T10:14:41;101617.78;;;1.59;91.16
75692;BME280;64307;52.508;6.090;2022-12-16T10:17:43;101612.16;;;1.64;91.33
75692;BME280;64307;52.508;6.090;2022-12-16T10:20:43;101620.19;;;1.60;90.41
75692;BME280;64307;52.508;6.090;2022-12-16T10:23:49;101612.41;;;1.54;91.46
75692;BME280;64307;52.508;6.090;2022-12-16T10:29:38;101620.31;;;1.47;91.41
75692;BME280;64307;52.508;6.090;2022-12-16T10:32:31;101621.66;;;1.58;91.56
75692;BME280;64307;52.508;6.090;2022-12-16T10:35:21;101605.31;;;1.53;90.91
75692;BME280;64307;52.508;6.090;2022-12-16T10:38:13;101624.91;;;1.60;91.07
75692;BME280;64307;52.508;6.090;2022-12-16T10:40:59;101619.41;;;1.60;90.46
75692;BME280;64307;52.508;6.090;2022-12-16T10:43:45;101623.91;;;1.56;90.05
75692;BME280;64307;52.508;6.090;2022-12-16T10:46:33;101619.34;;;1.43;90.90
75692;BME280;64307;52.508;6.090;2022-12-16T10:49:18;101617.63;;;1.55;90.55
75692;BME280;64307;52.508;6.090;2022-12-16T10:52:03;101619.19;;;1.48;89.59
75692;BME280;64307;52.508;6.090;2022-12-16T10:58:01;101629.56;;;1.59;89.88
75692;BME280;64307;52.508;6.090;2022-12-16T11:00:51;101624.38;;;1.49;89.86
75692;BME280;64307;52.508;6.090;2022-12-16T11:03:38;101624.53;;;1.53;89.90
75692;BME280;64307;52.508;6.090;2022-12-16T11:06:48;101629.41;;;1.64;89.66
75692;BME280;64307;52.508;6.090;2022-12-16T11:09:33;101633.44;;;1.58;89.83
75692;BME280;64307;52.508;6.090;2022-12-16T11:12:23;101622.91;;;1.52;89.52
75692;BME280;64307;52.508;6.090;2022-12-16T11:18:08;101639.38;;;1.43;89.94
75692;BME280;64307;52.508;6.090;2022-12-16T11:21:10;101648.38;;;1.44;90.01
75692;BME280;64307;52.508;6.090;2022-12-16T11:24:15;101648.38;;;1.44;89.73
75692;BME280;64307;52.508;6.090;2022-12-16T11:27:02;101657.22;;;1.32;90.45
75692;BME280;64307;52.508;6.090;2022-12-16T11:32:34;101644.88;;;1.52;90.26
75692;BME280;64307;52.508;6.090;2022-12-16T11:35:24;101657.00;;;1.20;90.91
75692;BME280;64307;52.508;6.090;2022-12-16T11:38:25;101662.44;;;1.42;90.52
75692;BME280;64307;52.508;6.090;2022-12-16T11:41:43;101658.38;;;1.40;90.12
75692;BME280;64307;52.508;6.090;2022-12-16T11:44:47;101663.19;;;1.34;89.92
75692;BME280;64307;52.508;6.090;2022-12-16T11:47:52;101670.22;;;1.49;90.22
75692;BME280;64307;52.508;6.090;2022-12-16T11:50:57;101662.75;;;1.41;90.19
75692;BME280;64307;52.508;6.090;2022-12-16T11:53:56;101657.09;;;1.46;89.71
75692;BME280;64307;52.508;6.090;2022-12-16T11:56:43;101654.66;;;1.36;90.00
75692;BME280;64307;52.508;6.090;2022-12-16T11:59:56;101665.28;;;1.29;90.05
75692;BME280;64307;52.508;6.090;2022-12-16T12:02:57;101654.69;;;1.14;91.20
75692;BME280;64307;52.508;6.090;2022-12-16T12:09:04;101670.50;;;1.39;90.86
75692;BME280;64307;52.508;6.090;2022-12-16T12:12:01;101663.25;;;1.43;90.30
75692;BME280;64307;52.508;6.090;2022-12-16T12:15:05;101660.72;;;1.24;91.13
75692;BME280;64307;52.508;6.090;2022-12-16T12:18:04;101661.72;;;1.28;90.14
75692;BME280;64307;52.508;6.090;2022-12-16T12:21:05;101671.81;;;1.41;90.30
75692;BME280;64307;52.508;6.090;2022-12-16T12:24:09;101679.75;;;1.51;89.94
75692;BME280;64307;52.508;6.090;2022-12-16T12:27:15;101675.38;;;1.20;90.57
75692;BME280;64307;52.508;6.090;2022-12-16T12:30:07;101676.75;;;1.31;90.51
75692;BME280;64307;52.508;6.090;2022-12-16T12:33:18;101682.84;;;1.28;90.72
75692;BME280;64307;52.508;6.090;2022-12-16T12:36:18;101683.09;;;1.18;91.15
75692;BME280;64307;52.508;6.090;2022-12-16T12:45:16;101693.72;;;1.11;91.39
75692;BME280;64307;52.508;6.090;2022-12-16T12:48:21;101693.53;;;1.07;91.06
75692;BME280;64307;52.508;6.090;2022-12-16T12:56:59;101702.38;;;1.26;90.71
75692;BME280;64307;52.508;6.090;2022-12-16T12:59:46;101709.41;;;0.97;91.82
75692;BME280;64307;52.508;6.090;2022-12-16T13:02:44;101709.56;;;0.92;92.14
75692;BME280;64307;52.508;6.090;2022-12-16T13:05:31;101711.41;;;0.82;92.31
75692;BME280;64307;52.508;6.090;2022-12-16T13:11:21;101717.91;;;1.09;91.37
75692;BME280;64307;52.508;6.090;2022-12-16T13:17:19;101716.72;;;1.01;91.47
75692;BME280;64307;52.508;6.090;2022-12-16T13:20:32;101725.66;;;1.07;91.66
75692;BME280;64307;52.508;6.090;2022-12-16T13:26:16;101742.38;;;1.05;91.73
75692;BME280;64307;52.508;6.090;2022-12-16T13:38:03;101750.00;;;0.86;92.05
75692;BME280;64307;52.508;6.090;2022-12-16T13:41:05;101749.44;;;0.98;91.26
75692;BME280;64307;52.508;6.090;2022-12-16T13:43:57;101751.03;;;0.99;91.51
75692;BME280;64307;52.508;6.090;2022-12-16T13:46:52;101751.03;;;0.99;91.55
75692;BME280;64307;52.508;6.090;2022-12-16T13:49:50;101748.19;;;1.04;91.38
75692;BME280;64307;52.508;6.090;2022-12-16T13:52:45;101741.72;;;1.22;91.06
75692;BME280;64307;52.508;6.090;2022-12-16T13:59:13;101774.44;;;1.40;90.04
75692;BME280;64307;52.508;6.090;2022-12-16T14:04:50;101766.34;;;1.35;90.14
75692;BME280;64307;52.508;6.090;2022-12-16T14:07:38;101769.31;;;1.25;89.31
75692;BME280;64307;52.508;6.090;2022-12-16T14:10:33;101779.75;;;1.15;89.90
75692;BME280;64307;52.508;6.090;2022-12-16T14:16:54;101771.19;;;1.38;89.54
75692;BME280;64307;52.508;6.090;2022-12-16T14:25:58;101783.00;;;1.39;89.20
75692;BME280;64307;52.508;6.090;2022-12-16T14:28:44;101790.56;;;0.98;90.30
75692;BME280;64307;52.508;6.090;2022-12-16T14:31:40;101792.47;;;1.11;90.06
75692;BME280;64307;52.508;6.090;2022-12-16T14:34:35;101802.25;;;1.25;89.26
75692;BME280;64307;52.508;6.090;2022-12-16T14:37:37;101809.28;;;1.40;88.69
75692;BME280;64307;52.508;6.090;2022-12-16T14:40:29;101805.81;;;1.26;88.74
75692;BME280;64307;52.508;6.090;2022-12-16T14:43:24;101802.72;;;1.05;89.57
75692;BME280;64307;52.508;6.090;2022-12-16T14:46:28;101809.19;;;1.23;89.79
75692;BME280;64307;52.508;6.090;2022-12-16T14:49:24;101805.78;;;1.04;89.74
75692;BME280;64307;52.508;6.090;2022-12-16T14:52:19;101816.91;;;1.21;89.29
75692;BME280;64307;52.508;6.090;2022-12-16T14:55:19;101820.44;;;1.21;89.35
75692;BME280;64307;52.508;6.090;2022-12-16T15:00:51;101831.94;;;0.88;90.08
75692;BME280;64307;52.508;6.090;2022-12-16T15:03:45;101838.44;;;0.92;89.10
75692;BME280;64307;52.508;6.090;2022-12-16T15:06:56;101836.84;;;1.13;89.33
75692;BME280;64307;52.508;6.090;2022-12-16T15:09:47;101837.97;;;1.12;89.48
75692;BME280;64307;52.508;6.090;2022-12-16T15:12:35;101839.44;;;1.31;88.81
75692;BME280;64307;52.508;6.090;2022-12-16T15:15:36;101850.56;;;1.13;88.30
75692;BME280;64307;52.508;6.090;2022-12-16T15:18:28;101851.19;;;1.32;89.03
75692;BME280;64307;52.508;6.090;2022-12-16T15:21:14;101862.69;;;1.34;88.26
75692;BME280;64307;52.508;6.090;2022-12-16T15:23:58;101860.56;;;1.31;88.80
75692;BME280;64307;52.508;6.090;2022-12-16T15:26:42;101867.28;;;1.25;88.86
75692;BME280;64307;52.508;6.090;2022-12-16T15:29:40;101882.53;;;1.17;89.22
75692;BME280;64307;52.508;6.090;2022-12-16T15:35:09;101892.59;;;1.22;88.95
75692;BME280;64307;52.508;6.090;2022-12-16T15:37:53;101897.81;;;1.10;88.95
75692;BME280;64307;52.508;6.090;2022-12-16T15:40:39;101894.84;;;1.20;89.14
75692;BME280;64307;52.508;6.090;2022-12-16T15:43:31;101904.69;;;1.21;89.13
75692;BME280;64307;52.508;6.090;2022-12-16T15:46:17;101900.50;;;1.23;88.60
75692;BME280;64307;52.508;6.090;2022-12-16T15:49:02;101895.53;;;1.25;88.90
75692;BME280;64307;52.508;6.090;2022-12-16T15:51:47;101898.41;;;1.20;88.63